Flight Track Log - Related Links

Times and Time Zones

All times are in EDT time to prevent confusion due to time zone crossing. See the EJA941 flight status page for this flight to view local times or setup timezone preferences in your user account.


Time Position Orientation Groundspeed Altitude Reporting Facility
EDT Latitude Longitude Course Direction KTS MPH feet Rate Location/Type
Mon 08:43:44 AM 29.6264 -95.2589 243° Southwest 187 215 900  Level Houston Center
Mon 08:45:00 AM 29.6941 -95.4192 296° West  Level FlightAware Approximate
Mon 08:46:55 AM 29.5544 -95.4214 270° West 265 305 11,000  Level Houston Center
Mon 08:47:57 AM 29.6011 -95.4967 306° West 282 325 14,000 2,585 Climbing Houston Center
Mon 08:48:58 AM 29.6481 -95.5744 305° West 292 336 16,300 1,902 Climbing Houston Center
Mon 08:50:00 AM 29.6953 -95.6525 305° West 295 339 17,900 774 Climbing Houston Center
Mon 08:51:02 AM 29.7486 -95.7422 304° West 332 382 17,900 48 Level Houston Center
Mon 08:52:00 AM 29.9334 -96.3616 270° West  Level FlightAware Approximate
Mon 08:52:04 AM 29.8111 -95.8431 306° West 382 440 18,000  Level Houston Center
Mon 08:53:05 AM 29.8739 -95.9503 304° West 401 461 18,800 1,171 Climbing Houston Center
Mon 08:54:07 AM 29.9297 -96.0764 297° West 393 452 20,400 1,484 Climbing Houston Center
Mon 08:56:11 AM 29.9439 -96.3278 274° West 393 452 23,400 1,459 Climbing Houston Center
Mon 08:57:12 AM 29.9556 -96.4531 276° West 394 453 24,900 1,610 Climbing Houston Center
Mon 08:58:14 AM 29.9903 -96.5994 285° West 396 456 26,700 1,597 Climbing Houston Center
Mon 08:59:16 AM 30.0194 -96.7233 285° West 400 460 28,200 1,452 Climbing Houston Center
Mon 09:01:20 AM 30.0753 -96.9722 285° West 404 465 31,200 1,524 Climbing Houston Center
Mon 09:02:21 AM 30.1075 -97.1139 285° West 405 466 32,900 1,561 Climbing Houston Center
Mon 09:03:23 AM 30.1361 -97.2436 284° West 411 473 34,400 1,484 Climbing Houston Center
Mon 09:05:00 AM 30.2118 -97.4559 282° West  Level FlightAware Approximate
Mon 09:05:27 AM 30.1944 -97.5017 282° West 409 471 37,500  Level Houston Center
Mon 09:06:29 AM 30.2222 -97.6306 284° West 408 470 38,000 244 Climbing Houston Center
Mon 09:07:30 AM 30.2525 -97.7656 285° West 424 488 38,000  Level Houston Center
Mon 09:08:32 AM 30.2853 -97.9181 284° West 434 499 38,000  Level Houston Center
Mon 09:09:34 AM 30.3178 -98.0636 285° West 436 502 38,000  Level Houston Center
Mon 09:10:36 AM 30.3422 -98.1803 284° West 439 505 38,000 32 Level Houston Center
Mon 09:12:00 AM 30.3937 -98.3689 288° West  Level FlightAware Approximate
Mon 09:12:40 AM 30.4075 -98.4800 288° West 439 505 38,100  Level Houston Center
Mon 09:13:42 AM 30.4347 -98.6153 283° West 428 493 38,900 780 Climbing Houston Center
Mon 09:14:43 AM 30.4639 -98.7494 284° West 425 489 39,700 537 Climbing Houston Center
Mon 09:15:45 AM 30.4925 -98.8839 284° West 425 489 40,000 145 Climbing Houston Center
Mon 09:16:47 AM 30.5217 -99.0233 284° West 439 505 40,000  Level Houston Center
Mon 09:18:00 AM 30.5672 -99.1873 288° West  Level FlightAware Approximate
Mon 09:18:51 AM 30.5819 -99.3058 288° West 444 511 40,000  Level Houston Center
Mon 09:20:00 AM 30.6341 -99.4593 282° West  Level FlightAware Approximate
Mon 09:20:55 AM 30.6464 -99.6175 282° West 455 524 40,000  Level Houston Center
Mon 09:23:00 AM 30.7181 -99.9029 283° West  Level FlightAware Approximate
Mon 09:24:38 AM 30.7461 -100.1306 283° West 432 497 40,900  Level Albuquerque Center
Mon 09:25:03 AM 30.7556 -100.1689 286° West 432 497 41,000 419 Climbing Houston Center
Mon 09:26:04 AM 30.7831 -100.3028 283° West 428 493 41,500 537 Climbing Houston Center
Mon 09:27:06 AM 30.8139 -100.4617 283° West 428 493 42,100 484 Climbing Houston Center
Mon 09:28:08 AM 30.8411 -100.5953 283° West 434 499 42,500 435 Climbing Houston Center
Mon 09:29:10 AM 30.8672 -100.7306 283° West 436 502 43,000 194 Climbing Houston Center
Mon 09:30:12 AM 30.8925 -100.8656 282° West 434 499 42,900  Descending Houston Center
Mon 09:31:14 AM 30.9189 -100.9997 283° West 432 497 43,000 39 Climbing Houston Center
Mon 09:32:45 AM 30.9622 -101.2189 283° West 432 497 43,000  Level Albuquerque Center
Mon 09:33:18 AM 30.9775 -101.2958 283° West 429 494 43,000  Level Houston Center
Mon 09:34:20 AM 31.0036 -101.4392 282° West 435 501 43,000  Level Houston Center
Mon 09:34:47 AM 31.0136 -101.4933 282° West 434 499 43,000  Level Albuquerque Center
Mon 09:36:23 AM 31.0550 -101.7189 282° West 442 509 43,000  Level Houston Center
Mon 09:36:49 AM 31.0647 -101.7722 282° West 440 506 43,000  Level Albuquerque Center
Mon 09:37:50 AM 31.0936 -101.9278 282° West 440 506 43,000  Level Albuquerque Center
Mon 09:38:51 AM 31.1194 -102.0736 282° West 450 518 43,000  Level Albuquerque Center
Mon 09:39:52 AM 31.1436 -102.2117 282° West 441 507 43,000  Level Albuquerque Center
Mon 09:40:53 AM 31.1692 -102.3514 282° West 440 506 43,000  Level Albuquerque Center
Mon 09:41:54 AM 31.1956 -102.4919 282° West 442 509 43,000  Level Albuquerque Center
Mon 09:42:55 AM 31.2175 -102.6228 281° West 437 503 43,000  Level Albuquerque Center
Mon 09:43:56 AM 31.2431 -102.7614 282° West 436 502 43,000  Level Albuquerque Center
Mon 09:45:58 AM 31.2953 -103.0667 281° West 436 502 43,000  Level Albuquerque Center
Mon 09:47:44 AM 31.3361 -103.2903 282° West 436 502 43,000  Level Houston Center
Mon 09:48:00 AM 31.3436 -103.3447 279° West 436 502 43,000  Level Albuquerque Center
Mon 09:49:02 AM 31.3678 -103.4850 281° West 438 504 43,000  Level Albuquerque Center
Mon 09:50:03 AM 31.3922 -103.6264 281° West 442 509 43,000  Level Albuquerque Center
Mon 09:51:04 AM 31.4181 -103.7761 281° West 445 512 43,000  Level Albuquerque Center
Mon 09:53:00 AM 31.4627 -104.0461 281° West  Level FlightAware Approximate
Mon 09:53:06 AM 31.4658 -104.0603 281° West 446 513 43,000  Level Albuquerque Center
Mon 09:54:07 AM 31.4897 -104.2039 281° West 449 517 43,000  Level Albuquerque Center
Mon 09:55:08 AM 31.5133 -104.3472 281° West 451 519 43,000  Level Albuquerque Center
Mon 09:57:11 AM 31.5617 -104.6369 281° West 457 526 43,000  Level Albuquerque Center
Mon 09:58:12 AM 31.5844 -104.7831 280° West 458 527 43,000  Level Albuquerque Center
Mon 09:59:13 AM 31.6142 -104.9594 281° West 461 531 43,000  Level Albuquerque Center
Mon 10:00:14 AM 31.6369 -105.1078 280° West 464 534 43,000  Level Albuquerque Center
Mon 10:01:15 AM 31.6608 -105.2572 281° West 467 537 43,000  Level Albuquerque Center
Mon 10:03:18 AM 31.7067 -105.5564 280° West 463 533 43,000 -24 Level Albuquerque Center
Mon 10:05:20 AM 31.7506 -105.8508 280° West 458 527 42,900  Descending Albuquerque Center
Mon 10:07:00 AM 31.7825 -106.0863 279° West  Level FlightAware Approximate
Mon 10:07:23 AM 31.7958 -106.1447 279° West 459 528 43,000  Level Albuquerque Center
Mon 10:09:00 AM 31.8214 -106.3734 283° West  Level FlightAware Approximate
Mon 10:12:30 AM 31.9086 -106.9000 279° West 459 528 43,000  Level Albuquerque Center
Mon 10:13:31 AM 31.9292 -107.0483 279° West 458 527 43,000  Level Albuquerque Center
Mon 10:15:00 AM 31.9571 -107.2584 279° West  Level FlightAware Approximate
Mon 10:16:00 AM 31.9685 -107.3608 279° West  Level FlightAware Approximate
Mon 10:16:35 AM 31.9953 -107.5272 279° West 460 529 43,000  Level Albuquerque Center
Mon 10:17:00 AM 31.9878 -107.5023 279° West  Level FlightAware Approximate
Mon 10:17:37 AM 32.0158 -107.6764 279° West 460 529 43,000  Level Albuquerque Center
Mon 10:19:00 AM 32.0422 -107.8724 279° West  Level FlightAware Approximate
Mon 10:19:40 AM 32.0567 -107.9731 279° West 459 528 43,000  Level Albuquerque Center
Mon 10:21:00 AM 32.0807 -108.1623 279° West  Level FlightAware Approximate
Mon 10:21:43 AM 32.0972 -108.2864 279° West 460 529 43,000  Level Albuquerque Center
Mon 10:22:00 AM 32.0920 -108.2497 279° West  Level FlightAware Approximate
Mon 10:22:45 AM 32.1169 -108.4350 279° West 462 532 43,000  Level Albuquerque Center
Mon 10:24:00 AM 32.1397 -108.6125 279° West  Level FlightAware Approximate
Mon 10:24:48 AM 32.1556 -108.7289 279° West 457 526 43,000  Level Albuquerque Center
Mon 10:25:50 AM 32.1742 -108.8781 278° West 460 529 43,000  Level Albuquerque Center
Mon 10:27:00 AM 32.1943 -109.0427 278° West  Level FlightAware Approximate
Mon 10:27:54 AM 32.2161 -109.2094 278° West 466 536 43,000  Level Albuquerque Center
Mon 10:28:55 AM 32.2333 -109.3594 278° West 464 534 43,000  Level Albuquerque Center
Mon 10:31:00 AM 32.2644 -109.6544 277° West  Level FlightAware Approximate
Mon 10:32:01 AM 32.2881 -109.8117 277° West 464 534 43,000  Level Albuquerque Center
Mon 10:33:02 AM 32.3331 -109.9861 287° West 464 534 43,000  Level Albuquerque Center
Mon 10:34:04 AM 32.3803 -110.1339 291° West 477 549 43,000  Level Albuquerque Center
Mon 10:36:08 AM 32.4692 -110.4317 290° West 464 534 43,000  Level Albuquerque Center
Mon 10:37:10 AM 32.5117 -110.5772 289° West 467 537 43,000  Level Albuquerque Center
Mon 10:38:11 AM 32.5533 -110.7217 289° West 464 534 43,000  Level Albuquerque Center
Mon 10:40:15 AM 32.6372 -111.0103 289° West 463 533 43,000  Level Albuquerque Center
Mon 10:41:17 AM 32.6789 -111.1564 289° West 466 536 43,000  Level Albuquerque Center
Mon 10:42:19 AM 32.7219 -111.3078 289° West 469 540 43,000  Level Albuquerque Center
Mon 10:43:20 AM 32.7719 -111.4761 289° West 463 533 43,000  Level Albuquerque Center
Mon 10:44:22 AM 32.8119 -111.6228 288° West 465 535 43,000  Level Albuquerque Center
Mon 10:45:24 AM 32.8525 -111.7697 288° West 468 539 43,000  Level Albuquerque Center
Mon 10:46:26 AM 32.8936 -111.9161 289° West 466 536 43,000  Level Albuquerque Center
Mon 10:47:28 AM 32.9336 -112.0622 288° West 464 534 43,000  Level Albuquerque Center
Mon 10:49:31 AM 33.0178 -112.3700 288° West 463 533 43,000  Level Albuquerque Center
Mon 10:50:33 AM 33.0575 -112.5156 288° West 464 534 43,000  Level Albuquerque Center
Mon 10:52:37 AM 33.1403 -112.8042 289° West 464 534 43,000  Level Albuquerque Center
Mon 10:53:38 AM 33.1900 -112.9789 289° West 466 536 43,000  Level Albuquerque Center
Mon 10:54:40 AM 33.2306 -113.1236 289° West 464 534 43,000 -48 Level Albuquerque Center
Mon 10:55:42 AM 33.2711 -113.2700 288° West 466 536 42,900  Descending Albuquerque Center
Mon 10:56:44 AM 33.3117 -113.4147 289° West 464 534 43,000 49 Climbing Albuquerque Center
Mon 10:57:45 AM 33.3519 -113.5611 288° West 465 535 43,000  Level Albuquerque Center
Mon 10:58:48 AM 33.3925 -113.7072 288° West 466 536 43,000  Level Albuquerque Center
Mon 10:59:49 AM 33.4367 -113.8836 287° West 462 532 43,000  Level Albuquerque Center
Mon 11:02:05 AM 33.5222 -114.2128 287° West 461 531 43,000  Level Los Angeles Center
Mon 11:02:55 AM 33.5494 -114.3233 286° West 460 529 43,000  Level Albuquerque Center
Mon 11:03:57 AM 33.5881 -114.4703 288° West 462 532 43,000  Level Albuquerque Center
Mon 11:05:10 AM 33.6342 -114.6542 287° West 465 535 43,000  Level Los Angeles Center
Mon 11:06:12 AM 33.6706 -114.8031 286° West 467 537 43,000 -32 Level Los Angeles Center
Mon 11:08:16 AM 33.7517 -115.1308 287° West 467 537 42,900  Descending Los Angeles Center
Mon 11:10:00 AM 33.8097 -115.3715 286° West  Level FlightAware Approximate
Mon 11:11:22 AM 33.8597 -115.5772 286° West 467 537 43,000  Level Los Angeles Center
Mon 11:12:24 AM 33.8967 -115.7292 286° West 473 544 42,900  Descending Los Angeles Center
Mon 11:13:25 AM 33.9403 -115.9078 286° West 468 539 43,000 32 Climbing Los Angeles Center
Mon 11:15:29 AM 34.0111 -116.2078 286° West 469 540 43,000  Level Los Angeles Center
Mon 11:16:31 AM 34.0447 -116.3561 285° West 463 533 43,000  Level Los Angeles Center
Mon 11:18:35 AM 34.1136 -116.6503 286° West 457 526 43,000  Level Los Angeles Center
Mon 11:20:00 AM 34.1465 -116.8523 287° West  Level FlightAware Approximate
Mon 11:20:39 AM 34.1883 -116.9742 287° West 455 524 43,000  Level Los Angeles Center
Mon 11:21:41 AM 34.2214 -117.1228 285° West 457 526 43,000  Level Los Angeles Center
Mon 11:22:43 AM 34.2578 -117.2778 286° West 460 529 43,000  Level Los Angeles Center
Mon 11:23:45 AM 34.2908 -117.4269 285° West 462 532 43,000  Level Los Angeles Center
Mon 11:24:47 AM 34.3261 -117.5761 286° West 465 535 43,000  Level Los Angeles Center
Mon 11:25:49 AM 34.4014 -117.6997 306° West 474 545 43,000  Level Los Angeles Center
Mon 11:26:51 AM 34.5108 -117.8383 314° West 473 544 43,000  Level Los Angeles Center
Mon 11:27:53 AM 34.6011 -117.9536 314° West 470 541 43,000  Level Los Angeles Center
Mon 11:29:00 AM 34.6904 -118.0754 312° West  Level FlightAware Approximate
Mon 11:29:58 AM 34.7811 -118.1853 312° West 468 539 43,000  Level Los Angeles Center
Mon 11:32:02 AM 34.9611 -118.4183 313° West 468 539 43,000  Level Los Angeles Center
Mon 11:33:04 AM 35.0583 -118.5439 313° West 467 537 43,000  Level Los Angeles Center
Mon 11:34:06 AM 35.1481 -118.6619 313° West 473 544 43,000  Level Los Angeles Center
Mon 11:36:10 AM 35.3472 -118.9211 313° West 475 547 43,000  Level Los Angeles Center
Mon 11:38:27 AM 35.5456 -119.1847 313° West 486 559 43,000 -30 Level Oakland Center
Mon 11:39:28 AM 35.6339 -119.3036 312° West 477 549 42,900  Descending Oakland Center
Mon 11:40:30 AM 35.7242 -119.4247 313° West 482 555 43,000 49 Climbing Oakland Center
Mon 11:41:31 AM 35.8156 -119.5467 313° West 486 559 43,000  Level Oakland Center
Mon 11:43:24 AM 35.9967 -119.7914 312° West 482 555 43,000 -205 Level Los Angeles Center
Mon 11:44:27 AM 36.0861 -119.9156 312° West 485 558 42,400 -1,579 Descending Los Angeles Center
Mon 11:45:37 AM 36.1969 -120.0625 313° West 500 575 39,500 -2,015 Descending Oakland Center
Mon 11:46:38 AM 36.2869 -120.1872 312° West 491 565 38,000 -1,073 Descending Oakland Center
Mon 11:47:40 AM 36.3781 -120.3100 313° West 488 562 37,300 -1,561 Descending Oakland Center
Mon 11:48:41 AM 36.4717 -120.4408 312° West 506 582 34,800 -2,705 Descending Oakland Center
Mon 11:49:42 AM 36.5825 -120.5947 312° West 502 578 31,800 -2,609 Descending Oakland Center
Mon 11:51:45 AM 36.7739 -120.8511 313° West 507 583 26,800 -2,368 Descending Oakland Center
Mon 11:52:47 AM 36.8700 -120.9550 319° Northwest 491 565 24,500 -2,537 Descending Oakland Center
Mon 11:53:48 AM 36.9661 -121.0633 318° Northwest 468 539 21,600 -3,121 Descending Oakland Center
Mon 11:56:30 AM 37.2167 -121.3500 318° Northwest 396 456 12,900 -3,130 Descending Northern Cal TRACON
Mon 11:56:52 AM 37.2397 -121.3817 312° West 368 423 12,000 -1,947 Descending Oakland Center
Mon 11:58:24 AM 37.3333 -121.4833 319° Northwest 282 325 9,200 -1,663 Descending Northern Cal TRACON
Mon 11:59:56 AM 37.4211 -121.5917 316° Northwest 286 329 6,900 -1,247 Descending Oakland Center
Mon 12:00:58 PM 37.4883 -121.6342 333° Northwest 272 313 6,000 -585 Descending Oakland Center
Mon 12:01:18 PM 37.5167 -121.6500 336° Northwest 268 308 6,100  Climbing Northern Cal TRACON
Mon 12:03:13 PM 37.6167 -121.7833 313° West 266 306 6,000 -536 Descending Northern Cal TRACON
Mon 12:05:13 PM 37.6000 -121.9500 263° West 239 275 4,000 -1,282 Descending Northern Cal TRACON
Mon 12:07:07 PM 37.6333 -122.0667 290° West 157 181 1,000 -1,579 Descending Northern Cal TRACON
Mon 12:09:00 PM 37.6500 -122.1167 282° West  Level FlightAware Approximate
Mon 12:16:00 PM 37.6589 -122.1217 282° West  Level Estimated
Mon 12:17:00 PM 37.6589 -122.1217 282° West  Level Estimated

Login

Don't have an account? Register now (free) for customized features, flight alerts, and more!